sensor_id;sensor_type;location;lat;lon;timestamp;P1;durP1;ratioP1;P2;durP2;ratioP2
70444;SDS011;57902;49.638;11.070;2023-05-31T00:18:11;4.00;;;1.30;;
70444;SDS011;57902;49.638;11.070;2023-05-31T00:20:38;5.45;;;1.50;;
70444;SDS011;57902;49.638;11.070;2023-05-31T00:23:05;4.53;;;1.42;;
70444;SDS011;57902;49.638;11.070;2023-05-31T00:25:31;5.25;;;1.30;;
70444;SDS011;57902;49.638;11.070;2023-05-31T00:27:58;4.25;;;1.25;;
70444;SDS011;57902;49.638;11.070;2023-05-31T00:30:24;5.53;;;1.33;;
70444;SDS011;57902;49.638;11.070;2023-05-31T00:32:59;4.63;;;1.27;;
70444;SDS011;57902;49.638;11.070;2023-05-31T00:35:37;5.25;;;1.30;;
70444;SDS011;57902;49.638;11.070;2023-05-31T00:38:04;5.45;;;1.40;;
70444;SDS011;57902;49.638;11.070;2023-05-31T00:40:32;3.63;;;1.40;;
70444;SDS011;57902;49.638;11.070;2023-05-31T00:42:59;5.25;;;1.60;;
70444;SDS011;57902;49.638;11.070;2023-05-31T00:45:26;4.55;;;1.50;;
70444;SDS011;57902;49.638;11.070;2023-05-31T00:47:55;5.38;;;1.40;;
70444;SDS011;57902;49.638;11.070;2023-05-31T00:50:23;5.68;;;1.88;;
70444;SDS011;57902;49.638;11.070;2023-05-31T00:52:50;4.20;;;1.35;;
70444;SDS011;57902;49.638;11.070;2023-05-31T00:55:19;6.60;;;1.48;;
70444;SDS011;57902;49.638;11.070;2023-05-31T00:57:46;4.50;;;1.50;;
70444;SDS011;57902;49.638;11.070;2023-05-31T01:00:14;6.63;;;1.35;;
70444;SDS011;57902;49.638;11.070;2023-05-31T01:02:41;5.55;;;1.40;;
70444;SDS011;57902;49.638;11.070;2023-05-31T01:05:09;4.30;;;1.42;;
70444;SDS011;57902;49.638;11.070;2023-05-31T01:07:36;5.63;;;1.45;;
70444;SDS011;57902;49.638;11.070;2023-05-31T01:10:03;8.13;;;1.50;;
70444;SDS011;57902;49.638;11.070;2023-05-31T01:12:35;3.50;;;1.50;;
70444;SDS011;57902;49.638;11.070;2023-05-31T01:15:20;6.97;;;1.40;;
70444;SDS011;57902;49.638;11.070;2023-05-31T01:18:06;4.45;;;1.60;;
70444;SDS011;57902;49.638;11.070;2023-05-31T01:21:11;4.43;;;1.30;;
70444;SDS011;57902;49.638;11.070;2023-05-31T01:23:59;4.20;;;1.33;;
70444;SDS011;57902;49.638;11.070;2023-05-31T01:26:47;3.45;;;1.35;;
70444;SDS011;57902;49.638;11.070;2023-05-31T01:29:20;2.90;;;1.20;;
70444;SDS011;57902;49.638;11.070;2023-05-31T01:34:25;5.10;;;1.58;;
70444;SDS011;57902;49.638;11.070;2023-05-31T01:36:52;7.15;;;1.33;;
70444;SDS011;57902;49.638;11.070;2023-05-31T01:39:22;6.22;;;1.50;;
70444;SDS011;57902;49.638;11.070;2023-05-31T01:41:49;6.13;;;1.50;;
70444;SDS011;57902;49.638;11.070;2023-05-31T01:49:56;5.15;;;1.38;;
70444;SDS011;57902;49.638;11.070;2023-05-31T01:57:29;4.35;;;1.60;;
70444;SDS011;57902;49.638;11.070;2023-05-31T01:59:58;3.15;;;1.30;;
70444;SDS011;57902;49.638;11.070;2023-05-31T02:33:08;4.03;;;1.50;;
70444;SDS011;57902;49.638;11.070;2023-05-31T02:35:44;6.18;;;1.67;;
70444;SDS011;57902;49.638;11.070;2023-05-31T02:38:31;7.63;;;1.50;;
70444;SDS011;57902;49.638;11.070;2023-05-31T02:41:00;4.75;;;1.40;;
70444;SDS011;57902;49.638;11.070;2023-05-31T02:43:29;6.20;;;1.50;;
70444;SDS011;57902;49.638;11.070;2023-05-31T02:45:59;4.85;;;1.50;;
70444;SDS011;57902;49.638;11.070;2023-05-31T02:48:33;4.85;;;1.40;;
70444;SDS011;57902;49.638;11.070;2023-05-31T02:51:26;8.98;;;1.45;;
70444;SDS011;57902;49.638;11.070;2023-05-31T02:54:48;5.93;;;1.52;;
70444;SDS011;57902;49.638;11.070;2023-05-31T03:14:36;4.13;;;1.58;;
70444;SDS011;57902;49.638;11.070;2023-05-31T03:17:08;4.18;;;1.40;;
70444;SDS011;57902;49.638;11.070;2023-05-31T03:19:40;5.88;;;1.73;;
70444;SDS011;57902;49.638;11.070;2023-05-31T03:22:13;4.45;;;1.30;;
70444;SDS011;57902;49.638;11.070;2023-05-31T03:24:48;4.50;;;1.40;;
70444;SDS011;57902;49.638;11.070;2023-05-31T03:27:24;6.15;;;1.45;;
70444;SDS011;57902;49.638;11.070;2023-05-31T03:30:19;4.00;;;1.52;;
70444;SDS011;57902;49.638;11.070;2023-05-31T03:33:10;4.90;;;1.42;;
70444;SDS011;57902;49.638;11.070;2023-05-31T03:35:56;5.07;;;1.30;;
70444;SDS011;57902;49.638;11.070;2023-05-31T03:38:57;6.93;;;1.40;;
70444;SDS011;57902;49.638;11.070;2023-05-31T03:49:05;4.70;;;1.50;;
70444;SDS011;57902;49.638;11.070;2023-05-31T03:51:54;5.15;;;1.60;;
70444;SDS011;57902;49.638;11.070;2023-05-31T03:54:23;5.30;;;1.63;;
70444;SDS011;57902;49.638;11.070;2023-05-31T03:59:36;4.22;;;1.60;;
70444;SDS011;57902;49.638;11.070;2023-05-31T04:10:00;5.32;;;2.05;;
70444;SDS011;57902;49.638;11.070;2023-05-31T04:12:27;8.60;;;2.08;;
70444;SDS011;57902;49.638;11.070;2023-05-31T04:14:53;4.82;;;1.90;;
70444;SDS011;57902;49.638;11.070;2023-05-31T04:17:22;9.23;;;2.10;;
70444;SDS011;57902;49.638;11.070;2023-05-31T04:19:59;7.43;;;1.95;;
70444;SDS011;57902;49.638;11.070;2023-05-31T04:22:32;5.55;;;1.88;;
70444;SDS011;57902;49.638;11.070;2023-05-31T04:25:02;7.47;;;2.10;;
70444;SDS011;57902;49.638;11.070;2023-05-31T04:27:46;5.97;;;1.98;;
70444;SDS011;57902;49.638;11.070;2023-05-31T04:30:18;8.18;;;2.00;;
70444;SDS011;57902;49.638;11.070;2023-05-31T04:32:55;7.28;;;2.13;;
70444;SDS011;57902;49.638;11.070;2023-05-31T04:36:04;6.95;;;2.30;;
70444;SDS011;57902;49.638;11.070;2023-05-31T04:38:31;6.00;;;2.13;;
70444;SDS011;57902;49.638;11.070;2023-05-31T04:41:01;12.98;;;3.85;;
70444;SDS011;57902;49.638;11.070;2023-05-31T04:43:37;14.20;;;7.43;;
70444;SDS011;57902;49.638;11.070;2023-05-31T04:46:09;24.75;;;6.68;;
70444;SDS011;57902;49.638;11.070;2023-05-31T04:48:42;10.70;;;3.38;;
70444;SDS011;57902;49.638;11.070;2023-05-31T04:51:14;13.75;;;3.92;;
70444;SDS011;57902;49.638;11.070;2023-05-31T04:53:48;8.30;;;2.42;;
70444;SDS011;57902;49.638;11.070;2023-05-31T04:56:19;6.68;;;2.20;;
70444;SDS011;57902;49.638;11.070;2023-05-31T04:59:03;10.27;;;4.20;;
70444;SDS011;57902;49.638;11.070;2023-05-31T05:02:09;8.32;;;3.15;;
70444;SDS011;57902;49.638;11.070;2023-05-31T05:04:39;8.57;;;2.30;;
70444;SDS011;57902;49.638;11.070;2023-05-31T05:07:09;8.50;;;2.20;;
70444;SDS011;57902;49.638;11.070;2023-05-31T05:09:36;9.00;;;2.50;;
70444;SDS011;57902;49.638;11.070;2023-05-31T05:12:19;8.65;;;2.33;;
70444;SDS011;57902;49.638;11.070;2023-05-31T05:14:48;6.88;;;2.03;;
70444;SDS011;57902;49.638;11.070;2023-05-31T05:17:21;14.45;;;2.95;;
70444;SDS011;57902;49.638;11.070;2023-05-31T05:20:06;7.68;;;2.15;;
70444;SDS011;57902;49.638;11.070;2023-05-31T05:23:05;8.30;;;1.90;;
70444;SDS011;57902;49.638;11.070;2023-05-31T05:25:34;7.13;;;2.00;;
70444;SDS011;57902;49.638;11.070;2023-05-31T05:28:01;5.88;;;1.75;;
70444;SDS011;57902;49.638;11.070;2023-05-31T05:30:28;7.05;;;1.92;;
70444;SDS011;57902;49.638;11.070;2023-05-31T05:32:55;9.68;;;2.22;;
70444;SDS011;57902;49.638;11.070;2023-05-31T05:35:27;6.78;;;1.70;;
70444;SDS011;57902;49.638;11.070;2023-05-31T05:37:54;5.40;;;1.75;;
70444;SDS011;57902;49.638;11.070;2023-05-31T05:40:21;7.22;;;1.67;;
70444;SDS011;57902;49.638;11.070;2023-05-31T05:42:48;9.43;;;1.70;;
70444;SDS011;57902;49.638;11.070;2023-05-31T05:45:14;5.03;;;1.80;;
70444;SDS011;57902;49.638;11.070;2023-05-31T05:47:41;8.55;;;1.88;;
70444;SDS011;57902;49.638;11.070;2023-05-31T05:50:11;7.68;;;1.88;;
70444;SDS011;57902;49.638;11.070;2023-05-31T05:52:38;8.07;;;1.80;;
70444;SDS011;57902;49.638;11.070;2023-05-31T05:55:08;5.72;;;1.75;;
70444;SDS011;57902;49.638;11.070;2023-05-31T05:57:34;6.53;;;3.20;;
70444;SDS011;57902;49.638;11.070;2023-05-31T06:00:01;8.10;;;3.20;;
70444;SDS011;57902;49.638;11.070;2023-05-31T06:02:36;6.97;;;1.70;;
70444;SDS011;57902;49.638;11.070;2023-05-31T06:05:03;6.95;;;1.80;;
70444;SDS011;57902;49.638;11.070;2023-05-31T06:07:31;6.57;;;1.80;;
70444;SDS011;57902;49.638;11.070;2023-05-31T06:09:57;9.27;;;2.22;;
70444;SDS011;57902;49.638;11.070;2023-05-31T06:12:24;8.10;;;2.10;;
70444;SDS011;57902;49.638;11.070;2023-05-31T06:14:50;5.40;;;2.13;;
70444;SDS011;57902;49.638;11.070;2023-05-31T06:17:20;6.80;;;2.08;;
70444;SDS011;57902;49.638;11.070;2023-05-31T06:22:14;6.18;;;1.90;;
70444;SDS011;57902;49.638;11.070;2023-05-31T06:24:41;7.80;;;1.63;;
70444;SDS011;57902;49.638;11.070;2023-05-31T06:29:35;4.85;;;1.60;;
70444;SDS011;57902;49.638;11.070;2023-05-31T06:32:02;6.80;;;1.90;;
70444;SDS011;57902;49.638;11.070;2023-05-31T06:34:29;5.47;;;1.70;;
70444;SDS011;57902;49.638;11.070;2023-05-31T06:36:58;6.25;;;1.60;;
70444;SDS011;57902;49.638;11.070;2023-05-31T06:39:26;4.35;;;1.40;;
70444;SDS011;57902;49.638;11.070;2023-05-31T06:41:53;10.60;;;1.95;;
70444;SDS011;57902;49.638;11.070;2023-05-31T06:44:20;6.72;;;1.73;;
70444;SDS011;57902;49.638;11.070;2023-05-31T06:46:46;5.95;;;1.52;;
70444;SDS011;57902;49.638;11.070;2023-05-31T06:49:15;8.68;;;2.20;;
70444;SDS011;57902;49.638;11.070;2023-05-31T06:51:41;7.50;;;1.55;;
70444;SDS011;57902;49.638;11.070;2023-05-31T06:54:08;8.07;;;2.17;;
70444;SDS011;57902;49.638;11.070;2023-05-31T06:56:34;7.65;;;1.70;;
70444;SDS011;57902;49.638;11.070;2023-05-31T06:59:01;5.28;;;1.67;;
70444;SDS011;57902;49.638;11.070;2023-05-31T07:01:27;8.00;;;2.00;;
70444;SDS011;57902;49.638;11.070;2023-05-31T07:03:58;6.18;;;2.10;;
70444;SDS011;57902;49.638;11.070;2023-05-31T07:06:27;9.65;;;2.08;;
70444;SDS011;57902;49.638;11.070;2023-05-31T07:08:54;9.82;;;2.20;;
70444;SDS011;57902;49.638;11.070;2023-05-31T07:11:21;5.03;;;1.60;;
70444;SDS011;57902;49.638;11.070;2023-05-31T07:13:47;12.43;;;2.53;;
70444;SDS011;57902;49.638;11.070;2023-05-31T07:16:14;8.60;;;1.63;;
70444;SDS011;57902;49.638;11.070;2023-05-31T07:18:41;11.75;;;2.13;;
70444;SDS011;57902;49.638;11.070;2023-05-31T07:21:07;5.30;;;1.63;;
70444;SDS011;57902;49.638;11.070;2023-05-31T07:23:34;7.10;;;2.17;;
70444;SDS011;57902;49.638;11.070;2023-05-31T07:26:00;4.50;;;1.80;;
70444;SDS011;57902;49.638;11.070;2023-05-31T07:30:54;6.63;;;1.55;;
70444;SDS011;57902;49.638;11.070;2023-05-31T07:33:25;8.10;;;1.92;;
70444;SDS011;57902;49.638;11.070;2023-05-31T07:35:59;7.15;;;2.00;;
70444;SDS011;57902;49.638;11.070;2023-05-31T07:38:28;10.73;;;2.55;;
70444;SDS011;57902;49.638;11.070;2023-05-31T07:40:55;6.50;;;1.70;;
70444;SDS011;57902;49.638;11.070;2023-05-31T07:43:22;10.55;;;2.10;;
70444;SDS011;57902;49.638;11.070;2023-05-31T07:45:50;5.22;;;1.83;;
70444;SDS011;57902;49.638;11.070;2023-05-31T07:48:17;14.93;;;1.95;;
70444;SDS011;57902;49.638;11.070;2023-05-31T07:50:44;8.32;;;1.88;;
70444;SDS011;57902;49.638;11.070;2023-05-31T07:53:11;9.90;;;2.45;;
70444;SDS011;57902;49.638;11.070;2023-05-31T07:55:38;7.97;;;2.05;;
70444;SDS011;57902;49.638;11.070;2023-05-31T07:58:04;11.77;;;1.70;;
70444;SDS011;57902;49.638;11.070;2023-05-31T08:00:31;7.57;;;2.00;;
70444;SDS011;57902;49.638;11.070;2023-05-31T08:03:00;5.85;;;1.60;;
70444;SDS011;57902;49.638;11.070;2023-05-31T08:05:28;8.10;;;1.90;;
70444;SDS011;57902;49.638;11.070;2023-05-31T08:07:54;6.88;;;1.88;;
70444;SDS011;57902;49.638;11.070;2023-05-31T08:10:21;8.57;;;1.88;;
70444;SDS011;57902;49.638;11.070;2023-05-31T08:12:47;7.18;;;1.92;;
70444;SDS011;57902;49.638;11.070;2023-05-31T08:15:14;6.90;;;1.75;;
70444;SDS011;57902;49.638;11.070;2023-05-31T08:17:41;9.20;;;1.50;;
70444;SDS011;57902;49.638;11.070;2023-05-31T08:20:12;5.72;;;1.60;;
70444;SDS011;57902;49.638;11.070;2023-05-31T08:22:43;6.45;;;1.67;;
70444;SDS011;57902;49.638;11.070;2023-05-31T08:25:11;6.43;;;1.90;;
70444;SDS011;57902;49.638;11.070;2023-05-31T08:27:40;6.68;;;1.60;;
70444;SDS011;57902;49.638;11.070;2023-05-31T08:30:09;9.20;;;1.33;;
70444;SDS011;57902;49.638;11.070;2023-05-31T08:32:37;6.80;;;1.70;;
70444;SDS011;57902;49.638;11.070;2023-05-31T08:37:33;6.88;;;1.70;;
70444;SDS011;57902;49.638;11.070;2023-05-31T08:40:01;4.18;;;1.35;;
70444;SDS011;57902;49.638;11.070;2023-05-31T08:42:38;7.05;;;1.63;;
70444;SDS011;57902;49.638;11.070;2023-05-31T08:45:10;8.35;;;1.95;;
70444;SDS011;57902;49.638;11.070;2023-05-31T08:47:43;8.30;;;1.90;;
70444;SDS011;57902;49.638;11.070;2023-05-31T08:50:12;11.20;;;1.85;;
70444;SDS011;57902;49.638;11.070;2023-05-31T08:52:39;7.93;;;1.85;;
70444;SDS011;57902;49.638;11.070;2023-05-31T08:55:07;10.57;;;1.88;;
70444;SDS011;57902;49.638;11.070;2023-05-31T08:57:34;7.55;;;1.90;;
70444;SDS011;57902;49.638;11.070;2023-05-31T09:02:35;9.90;;;2.17;;
70444;SDS011;57902;49.638;11.070;2023-05-31T09:05:02;9.10;;;1.70;;
70444;SDS011;57902;49.638;11.070;2023-05-31T09:07:30;6.47;;;1.73;;
70444;SDS011;57902;49.638;11.070;2023-05-31T09:09:57;7.53;;;1.60;;
70444;SDS011;57902;49.638;11.070;2023-05-31T09:12:24;7.47;;;1.45;;
70444;SDS011;57902;49.638;11.070;2023-05-31T09:14:50;4.10;;;1.50;;
70444;SDS011;57902;49.638;11.070;2023-05-31T09:17:17;10.02;;;1.70;;
70444;SDS011;57902;49.638;11.070;2023-05-31T09:19:49;4.43;;;1.63;;
70444;SDS011;57902;49.638;11.070;2023-05-31T09:22:17;6.43;;;1.70;;
70444;SDS011;57902;49.638;11.070;2023-05-31T09:25:17;6.47;;;1.65;;
70444;SDS011;57902;49.638;11.070;2023-05-31T09:27:39;7.45;;;1.88;;
70444;SDS011;57902;49.638;11.070;2023-05-31T09:30:10;6.07;;;1.90;;
70444;SDS011;57902;49.638;11.070;2023-05-31T09:32:37;5.18;;;1.40;;
70444;SDS011;57902;49.638;11.070;2023-05-31T09:35:14;5.18;;;1.60;;
70444;SDS011;57902;49.638;11.070;2023-05-31T09:37:42;6.95;;;1.70;;
70444;SDS011;57902;49.638;11.070;2023-05-31T09:40:13;5.47;;;1.67;;
70444;SDS011;57902;49.638;11.070;2023-05-31T09:42:53;4.90;;;1.73;;
70444;SDS011;57902;49.638;11.070;2023-05-31T09:45:21;6.15;;;1.58;;
70444;SDS011;57902;49.638;11.070;2023-05-31T09:47:48;7.50;;;1.80;;
70444;SDS011;57902;49.638;11.070;2023-05-31T09:50:22;8.40;;;1.80;;
70444;SDS011;57902;49.638;11.070;2023-05-31T09:52:49;4.63;;;1.70;;
70444;SDS011;57902;49.638;11.070;2023-05-31T09:55:22;6.95;;;1.70;;
70444;SDS011;57902;49.638;11.070;2023-05-31T09:57:58;7.50;;;1.70;;
70444;SDS011;57902;49.638;11.070;2023-05-31T10:00:25;5.78;;;1.83;;
70444;SDS011;57902;49.638;11.070;2023-05-31T10:02:52;4.75;;;1.50;;
70444;SDS011;57902;49.638;11.070;2023-05-31T10:05:20;4.93;;;1.80;;
70444;SDS011;57902;49.638;11.070;2023-05-31T10:07:48;8.82;;;1.58;;
70444;SDS011;57902;49.638;11.070;2023-05-31T10:10:16;7.40;;;1.80;;
70444;SDS011;57902;49.638;11.070;2023-05-31T10:12:50;4.47;;;1.50;;
70444;SDS011;57902;49.638;11.070;2023-05-31T10:15:24;5.68;;;1.92;;
70444;SDS011;57902;49.638;11.070;2023-05-31T10:20:23;6.22;;;1.63;;
70444;SDS011;57902;49.638;11.070;2023-05-31T10:25:48;6.47;;;2.53;;
70444;SDS011;57902;49.638;11.070;2023-05-31T10:28:26;4.72;;;1.63;;
70444;SDS011;57902;49.638;11.070;2023-05-31T10:30:54;7.82;;;1.80;;
70444;SDS011;57902;49.638;11.070;2023-05-31T10:33:24;5.32;;;1.65;;
70444;SDS011;57902;49.638;11.070;2023-05-31T10:35:59;4.85;;;1.50;;
70444;SDS011;57902;49.638;11.070;2023-05-31T10:39:11;6.13;;;1.55;;
70444;SDS011;57902;49.638;11.070;2023-05-31T10:41:21;8.23;;;2.22;;
70444;SDS011;57902;49.638;11.070;2023-05-31T10:43:54;9.52;;;1.95;;
70444;SDS011;57902;49.638;11.070;2023-05-31T10:46:25;6.72;;;1.52;;
70444;SDS011;57902;49.638;11.070;2023-05-31T10:48:58;6.47;;;1.90;;
70444;SDS011;57902;49.638;11.070;2023-05-31T10:51:38;5.93;;;1.90;;
70444;SDS011;57902;49.638;11.070;2023-05-31T10:54:06;7.93;;;2.10;;
70444;SDS011;57902;49.638;11.070;2023-05-31T10:56:32;7.90;;;1.73;;
70444;SDS011;57902;49.638;11.070;2023-05-31T10:59:03;8.65;;;1.70;;
70444;SDS011;57902;49.638;11.070;2023-05-31T11:01:30;14.43;;;2.15;;
70444;SDS011;57902;49.638;11.070;2023-05-31T11:03:57;7.82;;;1.70;;
70444;SDS011;57902;49.638;11.070;2023-05-31T11:06:27;8.38;;;1.70;;
70444;SDS011;57902;49.638;11.070;2023-05-31T11:08:59;6.95;;;1.88;;
70444;SDS011;57902;49.638;11.070;2023-05-31T11:13:59;7.15;;;1.52;;
70444;SDS011;57902;49.638;11.070;2023-05-31T11:19:20;6.35;;;1.70;;
70444;SDS011;57902;49.638;11.070;2023-05-31T11:21:53;8.27;;;1.70;;
70444;SDS011;57902;49.638;11.070;2023-05-31T11:24:37;6.82;;;1.63;;
70444;SDS011;57902;49.638;11.070;2023-05-31T11:27:05;6.15;;;1.92;;
70444;SDS011;57902;49.638;11.070;2023-05-31T11:30:16;7.88;;;1.67;;
70444;SDS011;57902;49.638;11.070;2023-05-31T11:35:15;4.53;;;1.52;;
70444;SDS011;57902;49.638;11.070;2023-05-31T11:37:42;5.90;;;2.00;;
70444;SDS011;57902;49.638;11.070;2023-05-31T11:40:25;5.72;;;1.73;;
70444;SDS011;57902;49.638;11.070;2023-05-31T11:42:51;4.82;;;1.88;;
70444;SDS011;57902;49.638;11.070;2023-05-31T11:45:22;4.93;;;1.50;;
70444;SDS011;57902;49.638;11.070;2023-05-31T11:48:08;5.63;;;1.52;;
70444;SDS011;57902;49.638;11.070;2023-05-31T11:50:45;7.25;;;1.73;;
70444;SDS011;57902;49.638;11.070;2023-05-31T11:53:13;9.48;;;1.92;;
70444;SDS011;57902;49.638;11.070;2023-05-31T11:55:44;5.50;;;1.58;;
70444;SDS011;57902;49.638;11.070;2023-05-31T11:58:13;6.28;;;1.70;;
70444;SDS011;57902;49.638;11.070;2023-05-31T12:00:46;4.97;;;2.22;;
70444;SDS011;57902;49.638;11.070;2023-05-31T12:03:16;4.95;;;1.90;;
70444;SDS011;57902;49.638;11.070;2023-05-31T12:05:56;3.63;;;1.42;;
70444;SDS011;57902;49.638;11.070;2023-05-31T12:08:40;7.93;;;1.77;;
70444;SDS011;57902;49.638;11.070;2023-05-31T12:11:12;5.65;;;1.55;;
70444;SDS011;57902;49.638;11.070;2023-05-31T12:13:43;7.20;;;2.15;;
70444;SDS011;57902;49.638;11.070;2023-05-31T12:16:16;5.35;;;1.60;;
70444;SDS011;57902;49.638;11.070;2023-05-31T12:18:42;6.93;;;1.58;;
70444;SDS011;57902;49.638;11.070;2023-05-31T12:21:09;4.90;;;1.50;;
70444;SDS011;57902;49.638;11.070;2023-05-31T12:23:52;5.40;;;1.60;;
70444;SDS011;57902;49.638;11.070;2023-05-31T12:26:27;8.15;;;1.80;;
70444;SDS011;57902;49.638;11.070;2023-05-31T12:28:54;5.95;;;1.85;;
70444;SDS011;57902;49.638;11.070;2023-05-31T12:31:25;6.97;;;1.83;;
70444;SDS011;57902;49.638;11.070;2023-05-31T12:34:16;7.57;;;1.80;;
70444;SDS011;57902;49.638;11.070;2023-05-31T12:36:49;7.55;;;1.63;;
70444;SDS011;57902;49.638;11.070;2023-05-31T12:39:30;9.15;;;1.98;;
70444;SDS011;57902;49.638;11.070;2023-05-31T12:42:01;4.97;;;1.60;;
70444;SDS011;57902;49.638;11.070;2023-05-31T12:44:34;5.10;;;2.00;;
70444;SDS011;57902;49.638;11.070;2023-05-31T12:47:03;5.43;;;1.65;;
70444;SDS011;57902;49.638;11.070;2023-05-31T12:49:33;6.13;;;1.75;;
70444;SDS011;57902;49.638;11.070;2023-05-31T12:52:02;5.85;;;1.80;;
70444;SDS011;57902;49.638;11.070;2023-05-31T12:54:31;5.43;;;1.52;;
70444;SDS011;57902;49.638;11.070;2023-05-31T12:57:02;7.03;;;1.92;;
70444;SDS011;57902;49.638;11.070;2023-05-31T12:59:31;4.97;;;1.70;;
70444;SDS011;57902;49.638;11.070;2023-05-31T13:02:02;6.68;;;1.58;;
70444;SDS011;57902;49.638;11.070;2023-05-31T13:04:31;4.63;;;1.60;;
70444;SDS011;57902;49.638;11.070;2023-05-31T13:07:10;4.53;;;1.58;;
70444;SDS011;57902;49.638;11.070;2023-05-31T13:09:39;7.85;;;1.70;;
70444;SDS011;57902;49.638;11.070;2023-05-31T13:12:07;5.15;;;1.60;;
70444;SDS011;57902;49.638;11.070;2023-05-31T13:14:37;4.97;;;1.60;;
70444;SDS011;57902;49.638;11.070;2023-05-31T13:17:06;4.72;;;1.70;;
70444;SDS011;57902;49.638;11.070;2023-05-31T13:19:32;6.25;;;1.70;;
70444;SDS011;57902;49.638;11.070;2023-05-31T13:22:06;4.47;;;1.52;;
70444;SDS011;57902;49.638;11.070;2023-05-31T13:24:33;7.18;;;1.70;;
70444;SDS011;57902;49.638;11.070;2023-05-31T13:27:02;6.70;;;1.50;;
70444;SDS011;57902;49.638;11.070;2023-05-31T13:29:29;4.95;;;1.33;;
70444;SDS011;57902;49.638;11.070;2023-05-31T13:31:57;6.15;;;1.60;;
70444;SDS011;57902;49.638;11.070;2023-05-31T13:34:26;6.70;;;1.80;;
70444;SDS011;57902;49.638;11.070;2023-05-31T13:36:54;8.60;;;1.98;;
70444;SDS011;57902;49.638;11.070;2023-05-31T13:39:30;6.03;;;1.70;;
70444;SDS011;57902;49.638;11.070;2023-05-31T13:42:04;7.45;;;1.50;;
70444;SDS011;57902;49.638;11.070;2023-05-31T13:44:35;9.27;;;1.85;;
70444;SDS011;57902;49.638;11.070;2023-05-31T13:47:07;8.30;;;1.95;;
70444;SDS011;57902;49.638;11.070;2023-05-31T13:49:40;6.15;;;1.70;;
70444;SDS011;57902;49.638;11.070;2023-05-31T13:52:07;5.90;;;1.70;;
70444;SDS011;57902;49.638;11.070;2023-05-31T13:54:40;5.88;;;1.50;;
70444;SDS011;57902;49.638;11.070;2023-05-31T13:57:08;3.63;;;1.25;;
70444;SDS011;57902;49.638;11.070;2023-05-31T13:59:35;4.07;;;1.45;;
70444;SDS011;57902;49.638;11.070;2023-05-31T14:02:02;3.85;;;1.60;;
70444;SDS011;57902;49.638;11.070;2023-05-31T14:04:30;8.95;;;1.90;;
70444;SDS011;57902;49.638;11.070;2023-05-31T14:06:57;6.70;;;1.70;;
70444;SDS011;57902;49.638;11.070;2023-05-31T14:09:24;5.53;;;1.65;;
70444;SDS011;57902;49.638;11.070;2023-05-31T14:11:54;5.93;;;1.50;;
70444;SDS011;57902;49.638;11.070;2023-05-31T14:14:25;6.60;;;1.55;;
70444;SDS011;57902;49.638;11.070;2023-05-31T14:16:53;4.55;;;1.65;;
70444;SDS011;57902;49.638;11.070;2023-05-31T14:19:20;6.88;;;1.83;;
70444;SDS011;57902;49.638;11.070;2023-05-31T14:21:47;7.18;;;1.77;;
70444;SDS011;57902;49.638;11.070;2023-05-31T14:24:14;3.97;;;1.52;;
70444;SDS011;57902;49.638;11.070;2023-05-31T14:26:45;8.77;;;1.80;;
70444;SDS011;57902;49.638;11.070;2023-05-31T14:29:15;6.70;;;1.80;;
70444;SDS011;57902;49.638;11.070;2023-05-31T14:31:41;4.40;;;1.60;;
70444;SDS011;57902;49.638;11.070;2023-05-31T14:34:10;6.30;;;1.83;;
70444;SDS011;57902;49.638;11.070;2023-05-31T14:36:40;4.93;;;1.48;;
70444;SDS011;57902;49.638;11.070;2023-05-31T14:39:06;5.18;;;1.50;;
70444;SDS011;57902;49.638;11.070;2023-05-31T14:41:35;5.18;;;1.70;;
70444;SDS011;57902;49.638;11.070;2023-05-31T14:44:04;5.68;;;1.60;;
70444;SDS011;57902;49.638;11.070;2023-05-31T14:46:32;8.63;;;1.80;;
70444;SDS011;57902;49.638;11.070;2023-05-31T14:49:01;6.93;;;1.73;;
70444;SDS011;57902;49.638;11.070;2023-05-31T14:51:27;6.15;;;1.63;;
70444;SDS011;57902;49.638;11.070;2023-05-31T14:53:57;4.20;;;1.60;;
70444;SDS011;57902;49.638;11.070;2023-05-31T14:56:23;7.97;;;1.60;;
70444;SDS011;57902;49.638;11.070;2023-05-31T14:58:57;7.28;;;1.63;;
70444;SDS011;57902;49.638;11.070;2023-05-31T15:01:24;4.45;;;1.48;;
70444;SDS011;57902;49.638;11.070;2023-05-31T15:03:51;5.25;;;1.50;;
70444;SDS011;57902;49.638;11.070;2023-05-31T15:06:17;4.95;;;1.48;;
70444;SDS011;57902;49.638;11.070;2023-05-31T15:08:56;7.50;;;1.77;;
70444;SDS011;57902;49.638;11.070;2023-05-31T15:11:26;4.90;;;1.77;;
70444;SDS011;57902;49.638;11.070;2023-05-31T15:13:53;5.65;;;1.77;;
70444;SDS011;57902;49.638;11.070;2023-05-31T15:16:22;5.00;;;1.40;;
70444;SDS011;57902;49.638;11.070;2023-05-31T15:18:52;5.57;;;1.55;;
70444;SDS011;57902;49.638;11.070;2023-05-31T15:21:19;4.60;;;1.52;;
70444;SDS011;57902;49.638;11.070;2023-05-31T15:23:46;5.75;;;1.77;;
70444;SDS011;57902;49.638;11.070;2023-05-31T15:26:16;5.70;;;1.50;;
70444;SDS011;57902;49.638;11.070;2023-05-31T15:28:52;7.15;;;1.80;;
70444;SDS011;57902;49.638;11.070;2023-05-31T15:33:46;7.35;;;1.70;;
70444;SDS011;57902;49.638;11.070;2023-05-31T15:36:13;7.80;;;1.58;;
70444;SDS011;57902;49.638;11.070;2023-05-31T15:38:40;6.00;;;1.58;;
70444;SDS011;57902;49.638;11.070;2023-05-31T15:41:09;4.18;;;1.48;;
70444;SDS011;57902;49.638;11.070;2023-05-31T15:44:07;4.10;;;1.40;;
70444;SDS011;57902;49.638;11.070;2023-05-31T15:46:33;4.53;;;1.38;;
70444;SDS011;57902;49.638;11.070;2023-05-31T15:49:00;5.80;;;1.40;;
70444;SDS011;57902;49.638;11.070;2023-05-31T15:51:28;4.97;;;1.33;;
70444;SDS011;57902;49.638;11.070;2023-05-31T15:53:54;4.07;;;1.33;;
70444;SDS011;57902;49.638;11.070;2023-05-31T15:56:30;3.42;;;1.33;;
70444;SDS011;57902;49.638;11.070;2023-05-31T15:58:56;5.85;;;1.73;;
70444;SDS011;57902;49.638;11.070;2023-05-31T16:01:23;7.35;;;1.70;;
70444;SDS011;57902;49.638;11.070;2023-05-31T16:03:49;4.82;;;1.33;;
70444;SDS011;57902;49.638;11.070;2023-05-31T16:06:17;4.50;;;1.50;;
70444;SDS011;57902;49.638;11.070;2023-05-31T16:08:44;5.80;;;1.60;;
70444;SDS011;57902;49.638;11.070;2023-05-31T16:11:11;4.82;;;1.35;;
70444;SDS011;57902;49.638;11.070;2023-05-31T16:13:40;4.47;;;1.40;;
70444;SDS011;57902;49.638;11.070;2023-05-31T16:16:15;7.00;;;1.70;;
70444;SDS011;57902;49.638;11.070;2023-05-31T16:18:50;4.05;;;1.38;;
70444;SDS011;57902;49.638;11.070;2023-05-31T16:25:41;7.35;;;1.50;;
70444;SDS011;57902;49.638;11.070;2023-05-31T16:35:10;7.00;;;1.63;;
70444;SDS011;57902;49.638;11.070;2023-05-31T16:37:52;4.97;;;1.30;;
70444;SDS011;57902;49.638;11.070;2023-05-31T16:40:43;4.75;;;1.38;;
70444;SDS011;57902;49.638;11.070;2023-05-31T16:43:17;4.13;;;1.48;;
70444;SDS011;57902;49.638;11.070;2023-05-31T16:46:07;3.75;;;1.58;;
70444;SDS011;57902;49.638;11.070;2023-05-31T16:49:15;3.95;;;1.45;;
70444;SDS011;57902;49.638;11.070;2023-05-31T16:52:11;3.55;;;1.33;;
70444;SDS011;57902;49.638;11.070;2023-05-31T16:54:53;3.28;;;1.30;;
70444;SDS011;57902;49.638;11.070;2023-05-31T16:57:21;6.20;;;1.30;;
70444;SDS011;57902;49.638;11.070;2023-05-31T17:00:16;4.30;;;1.30;;
70444;SDS011;57902;49.638;11.070;2023-05-31T17:02:43;7.55;;;1.80;;
70444;SDS011;57902;49.638;11.070;2023-05-31T17:05:17;5.45;;;1.55;;
70444;SDS011;57902;49.638;11.070;2023-05-31T17:08:35;3.88;;;1.40;;
70444;SDS011;57902;49.638;11.070;2023-05-31T17:11:16;4.82;;;1.50;;
70444;SDS011;57902;49.638;11.070;2023-05-31T17:14:02;3.53;;;1.33;;
70444;SDS011;57902;49.638;11.070;2023-05-31T17:16:43;4.05;;;1.40;;